Weather at Victoria (BC Hydro) Heliport [CLOSED]

Public forecast

Using degrees Celsius for public forecast. Weather courtesy of forecast.io.

Closest aviation weather report (METAR) to Victoria (BC Hydro) Heliport

Closest report is Victoria Harbour Seaplane Base, 4.0 nm (7.5 km) S.

2024/05/26 21:00 (retrieved 37 minutes ago)

CYWH 262100Z 11008KT 15SM SCT010 BKN015 OVC050 12/10 A3011 RMK SC3SC3SC2 SLP198

Closest aviation forecast (TAF) to Victoria (BC Hydro) Heliport

Closest forecast is Victoria Harbour Seaplane Base, 4.0 nm (7.5 km) S.

2024/05/26 21:00 (retrieved 37 minutes ago)

TAF CYWH 262040Z 2621/2704 11008KT P6SM SCT015 BKN040 TEMPO 2621/2704 P6SM -SHRA SCT009 BKN015 BECMG 2621/2623 24005KT RMK NXT FCST BY 271400Z